Terminal Aerodrome Forecast
Issued by NWS Wilmington, OH

Current Version | Previous Version | Text Only | Print | Product List | Glossary Off
Versions: 1 2 3 4 5 6 7 8 9 10 11 12 13 14 15 16 17 18 19 20 21 22 23 24 25 26

000
FTUS41 KILN 112332
TAFCMH
TAF
KCMH 112332Z 1200/1224 13007KT P6SM BKN150
     FM120700 26010G20KT P6SM BKN022
     FM121000 29012G22KT P6SM VCSH OVC014
     FM121200 31016G31KT P6SM VCSH OVC020
     FM121600 31016G31KT P6SM VCSH BKN025=

USA.gov is the U.S. government's official web portal to all federal, state and local government web resources and services.